Time;durP1;ratioP1;P1;durP2;ratioP2;P2;SDS_P1;SDS_P2;PMS_P1;PMS_P2;Temp;Humidity;BMP_temperature;BMP_pressure;BME280_temperature;BME280_humidity;BME280_pressure;Samples;Min_cycle;Max_cycle;Signal;HPM_P1;HPM_P2
2022/12/07 00:07:57;;;;;;;11.57;6.70;;;;;;;2.70;100.00;97830.91;18280387;32;20396;-64
2022/12/07 00:18:00;;;;;;;13.27;8.03;;;;;;;2.68;100.00;97827.59;18293853;32;20406;-64
2022/12/07 00:28:03;;;;;;;12.30;8.20;;;;;;;2.67;100.00;97824.13;18293268;32;20054;-64
2022/12/07 00:38:05;;;;;;;14.73;8.93;;;;;;;2.66;100.00;97814.47;18293122;32;20093;-64
2022/12/07 00:48:07;;;;;;;12.57;8.50;;;;;;;2.63;100.00;97812.25;18292785;32;20464;-64
2022/12/07 00:58:10;;;;;;;15.60;9.23;;;;;;;2.50;100.00;97807.78;18295068;32;20050;-65
2022/12/07 01:08:13;;;;;;;14.93;9.87;;;;;;;2.46;100.00;97795.91;18302886;32;20118;-64
2022/12/07 01:18:15;;;;;;;13.30;8.77;;;;;;;2.44;100.00;97806.00;18301987;32;20080;-64
2022/12/07 01:28:18;;;;;;;19.50;9.60;;;;;;;2.42;100.00;97802.69;18301898;32;20050;-64
2022/12/07 01:38:20;;;;;;;17.50;11.47;;;;;;;2.46;100.00;97806.56;18301161;32;20046;-64
2022/12/07 01:48:36;;;;;;;16.07;10.87;;;;;;;2.45;100.00;97804.13;18300805;32;20125;-64
2022/12/07 01:58:39;;;;;;;14.97;10.30;;;;;;;2.41;100.00;97808.25;18298983;32;20504;-64
2022/12/07 02:08:42;;;;;;;14.67;9.97;;;;;;;2.39;100.00;97813.00;18299363;32;20065;-64
2022/12/07 02:19:03;;;;;;;14.37;9.97;;;;;;;2.36;100.00;97801.72;18299168;32;20118;-64
2022/12/07 02:29:47;;;;;;;13.27;9.03;;;;;;;2.36;100.00;97796.38;18298851;32;20468;-65
2022/12/07 02:40:04;;;;;;;14.77;9.80;;;;;;;2.37;100.00;97784.69;18039162;32;20225;-64
2022/12/07 02:50:07;;;;;;;15.20;10.10;;;;;;;2.36;100.00;97788.38;18039077;32;20117;-64
2022/12/07 03:00:19;;;;;;;16.10;11.00;;;;;;;2.35;100.00;97792.06;18038224;32;20218;-64
2022/12/07 03:10:31;;;;;;;15.07;11.20;;;;;;;2.32;100.00;97792.50;18134299;32;20362;-64
2022/12/07 03:20:35;;;;;;;16.73;10.33;;;;;;;2.30;100.00;97791.06;18281878;32;20072;-64
2022/12/07 03:31:02;;;;;;;21.00;13.30;;;;;;;2.34;100.00;97792.28;18294898;32;20128;-64
2022/12/07 03:41:07;;;;;;;22.80;13.10;;;;;;;2.39;100.00;97789.78;18295550;32;20108;-65
2022/12/07 03:51:38;;;;;;;22.77;14.35;;;;;;;2.41;100.00;97792.25;18295013;32;20084;-65
2022/12/07 04:01:45;;;;;;;25.17;15.20;;;;;;;2.42;100.00;97791.22;18294382;32;20045;-65
2022/12/07 04:11:47;;;;;;;23.97;14.77;;;;;;;2.39;100.00;97800.47;18294489;32;20117;-65
2022/12/07 04:21:50;;;;;;;27.87;15.33;;;;;;;2.38;100.00;97790.81;18293514;32;20042;-64
2022/12/07 04:31:53;;;;;;;19.10;12.00;;;;;;;2.41;100.00;97787.72;18295765;32;20096;-64
2022/12/07 04:41:56;;;;;;;20.53;12.70;;;;;;;2.37;100.00;97784.69;18304233;32;20110;-65
2022/12/07 04:51:59;;;;;;;16.87;10.97;;;;;;;2.37;100.00;97774.00;18303591;32;20062;-64
2022/12/07 05:02:01;;;;;;;17.57;10.87;;;;;;;2.39;100.00;97773.78;18302626;32;20050;-65
2022/12/07 05:12:04;;;;;;;14.83;9.20;;;;;;;2.33;100.00;97774.63;18303694;32;20076;-65
2022/12/07 05:22:06;;;;;;;13.20;8.40;;;;;;;2.28;100.00;97777.13;18302138;32;20054;-65
2022/12/07 05:32:09;;;;;;;13.60;9.50;;;;;;;2.23;100.00;97767.09;18301864;32;20062;-64
2022/12/07 05:42:12;;;;;;;13.23;9.00;;;;;;;2.21;100.00;97763.84;18300972;32;20129;-64
2022/12/07 05:52:15;;;;;;;11.47;8.20;;;;;;;2.14;100.00;97765.72;18287016;32;20117;-64
2022/12/07 06:02:18;;;;;;;11.67;8.30;;;;;;;2.12;100.00;97770.44;18300608;32;20478;-64
2022/12/07 06:12:38;;;;;;;12.87;7.43;;;;;;;2.09;100.00;97773.53;18299882;32;20084;-65
2022/12/07 06:22:40;;;;;;;10.63;7.37;;;;;;;2.02;100.00;97779.72;18285564;32;20070;-64
2022/12/07 06:32:43;;;;;;;11.27;7.23;;;;;;;1.96;100.00;97787.72;18298577;32;20078;-64
2022/12/07 06:42:45;;;;;;;8.60;6.30;;;;;;;1.85;100.00;97773.22;18284570;32;20102;-64
2022/12/07 06:52:48;;;;;;;10.23;6.60;;;;;;;1.61;100.00;97778.22;18297867;32;20096;-64
2022/12/07 07:02:51;;;;;;;9.73;6.40;;;;;;;1.47;100.00;97784.63;18296543;32;20058;-64
2022/12/07 07:12:54;;;;;;;10.37;7.00;;;;;;;1.47;100.00;97776.63;18270488;32;20080;-64
2022/12/07 07:22:59;;;;;;;10.15;6.53;;;;;;;1.26;100.00;97780.34;18283266;32;20100;-65
2022/12/07 07:33:04;;;;;;;9.90;6.10;;;;;;;1.16;100.00;97791.44;18281993;32;20065;-65
2022/12/07 07:43:06;;;;;;;10.73;6.03;;;;;;;1.16;100.00;97786.09;18295531;32;20117;-65
2022/12/07 07:53:09;;;;;;;8.70;5.80;;;;;;;1.25;100.00;97794.69;18295100;32;20069;-64
2022/12/07 08:03:12;;;;;;;8.80;5.87;;;;;;;1.32;100.00;97806.97;18280667;32;20049;-64
2022/12/07 08:13:18;;;;;;;9.73;6.60;;;;;;;1.41;100.00;97810.25;18286261;32;20382;-65
2022/12/07 08:23:21;;;;;;;9.07;6.00;;;;;;;1.65;100.00;97808.75;18314955;32;20069;-64
2022/12/07 08:33:34;;;;;;;10.63;6.73;;;;;;;1.87;100.00;97821.81;18314271;32;20066;-64
2022/12/07 08:43:37;;;;;;;10.80;7.47;;;;;;;2.19;100.00;97827.25;18314126;32;20050;-64
2022/12/07 08:53:41;;;;;;;12.70;8.20;;;;;;;2.52;100.00;97839.59;18313713;32;20132;-64
2022/12/07 09:03:44;;;;;;;12.77;8.27;;;;;;;2.74;100.00;97834.78;18313552;32;20399;-64
2022/12/07 09:13:47;;;;;;;13.97;9.13;;;;;;;2.87;100.00;97841.88;18313093;32;20074;-64
2022/12/07 09:23:51;;;;;;;16.40;11.43;;;;;;;2.97;100.00;97849.41;18303510;32;20092;-64
2022/12/07 09:33:58;;;;;;;17.33;11.20;;;;;;;2.88;100.00;97865.69;18302022;32;20365;-64
2022/12/07 09:44:05;;;;;;;;;;;;;;;2.75;100.00;97856.94;18301390;32;20465;-65
2022/12/07 09:54:12;;;;;;;18.33;11.07;;;;;;;2.47;100.00;97869.59;18287277;32;19985;-64
2022/12/07 10:04:22;;;;;;;18.37;11.73;;;;;;;2.56;100.00;97856.81;18285993;32;20460;-64
2022/12/07 10:14:29;;;;;;;19.17;11.90;;;;;;;2.80;100.00;97849.91;18299748;32;20058;-65
2022/12/07 10:24:52;;;;;;;15.67;10.83;;;;;;;3.04;100.00;97844.81;18299439;32;20116;-64
2022/12/07 10:35:24;;;;;;;18.73;11.03;;;;;;;2.93;99.43;97821.47;18298538;32;20137;-64
2022/12/07 10:45:27;;;;;;;16.53;10.80;;;;;;;2.89;100.00;97815.75;18284698;32;20106;-65
2022/12/07 10:55:58;;;;;;;16.47;9.83;;;;;;;3.37;95.62;97806.31;18297554;32;20121;-64
2022/12/07 11:06:18;;;;;;;14.27;9.33;;;;;;;3.53;97.91;97800.38;18233474;32;20054;-64
2022/12/07 11:16:30;;;;;;;14.63;9.53;;;;;;;3.87;97.43;97789.34;18234035;32;20046;-64
2022/12/07 11:27:07;;;;;;;13.30;9.13;;;;;;;4.21;93.71;97776.37;18232869;32;20094;-65
2022/12/07 11:37:16;;;;;;;15.90;9.20;;;;;;;3.78;92.48;97771.97;18233205;32;20070;-64
2022/12/07 11:47:46;;;;;;;12.67;7.80;;;;;;;3.55;94.12;97744.84;18232379;32;20105;-64
2022/12/07 11:58:00;;;;;;;12.33;8.33;;;;;;;3.65;94.76;97730.97;18233944;32;20387;-65
2022/12/07 12:08:40;;;;;;;12.60;8.50;;;;;;;3.48;89.82;97713.87;18294349;32;20058;-64
2022/12/07 12:19:16;;;;;;;14.23;8.33;;;;;;;3.69;90.93;97718.78;18293876;32;20069;-65
2022/12/07 12:29:30;;;;;;;10.00;7.05;;;;;;;4.00;85.35;97695.56;18279933;32;20062;-64
2022/12/07 12:39:33;;;;;;;11.23;6.87;;;;;;;4.17;80.88;97690.38;18266897;32;20084;-64
2022/12/07 12:49:45;;;;;;;11.33;7.00;;;;;;;3.98;82.41;97678.09;18292743;32;20105;-65
2022/12/07 12:59:51;;;;;;;10.53;6.47;;;;;;;3.89;84.39;97673.06;18287103;32;20054;-65
2022/12/07 13:09:53;;;;;;;9.60;6.37;;;;;;;3.83;86.12;97660.56;18276753;32;20373;-64
2022/12/07 13:19:57;;;;;;;9.73;6.60;;;;;;;3.86;87.01;97653.97;18302529;32;20416;-65
2022/12/07 13:30:00;;;;;;;11.90;7.30;;;;;;;3.78;85.10;97646.25;18301939;32;20080;-65
2022/12/07 13:40:19;;;;;;;10.27;6.17;;;;;;;3.61;80.04;97641.53;18301917;32;20058;-65
2022/12/07 13:50:31;;;;;;;;;;;;;;;3.38;83.43;97629.69;18301259;32;20076;-64
2022/12/07 14:00:34;;;;;;;10.30;6.23;;;;;;;3.19;84.52;97622.72;18300347;32;19968;-65
2022/12/07 14:10:41;;;;;;;10.83;6.73;;;;;;;3.03;85.87;97619.62;18299452;32;20098;-64
2022/12/07 14:20:44;;;;;;;12.07;6.90;;;;;;;2.88;87.61;97621.84;18299393;32;20479;-64
2022/12/07 14:30:47;;;;;;;8.63;5.73;;;;;;;2.86;86.45;97616.72;18298936;32;20046;-64
2022/12/07 14:40:51;;;;;;;10.50;5.50;;;;;;;2.73;89.28;97608.84;18298863;32;20336;-64
2022/12/07 14:50:54;;;;;;;8.83;5.70;;;;;;;2.66;91.90;97606.22;18298073;32;20099;-65
2022/12/07 15:01:17;;;;;;;10.47;5.97;;;;;;;2.64;93.72;97602.94;18297294;32;20379;-65
2022/12/07 15:11:20;;;;;;;7.03;4.87;;;;;;;2.57;95.13;97593.41;18296978;32;20057;-65
2022/12/07 15:21:23;;;;;;;12.10;7.27;;;;;;;2.26;97.02;97598.59;18295762;32;20441;-64
2022/12/07 15:31:26;;;;;;;9.07;5.57;;;;;;;2.11;98.81;97600.75;18296088;32;20365;-64
2022/12/07 15:41:49;;;;;;;10.40;6.53;;;;;;;1.95;99.78;97594.94;18295424;32;20049;-65
2022/12/07 15:51:52;;;;;;;9.03;5.53;;;;;;;1.79;100.00;97598.13;18294969;32;20066;-64
2022/12/07 16:01:56;;;;;;;9.60;5.43;;;;;;;1.63;100.00;97589.59;18280313;32;20203;-65
2022/12/07 16:11:59;;;;;;;9.00;4.80;;;;;;;1.42;100.00;97579.28;18294323;32;20065;-65
2022/12/07 16:22:04;;;;;;;7.17;4.93;;;;;;;0.98;100.00;97563.88;18293961;32;20106;-64
2022/12/07 16:32:06;;;;;;;6.17;3.60;;;;;;;0.62;100.00;97562.56;18300997;32;20332;-65
2022/12/07 16:42:09;;;;;;;8.70;5.37;;;;;;;0.24;100.00;97557.13;18304218;32;20070;-65
2022/12/07 16:52:12;;;;;;;7.87;4.70;;;;;;;-0.05;100.00;97561.84;18290151;32;20102;-65
2022/12/07 17:02:22;;;;;;;7.80;4.80;;;;;;;-0.26;100.00;97552.22;18290483;32;20062;-65
2022/12/07 17:12:25;;;;;;;8.43;5.00;;;;;;;-0.42;100.00;97556.91;18302848;32;20117;-64
2022/12/07 17:22:28;;;;;;;8.13;5.23;;;;;;;-0.59;100.00;97551.16;18288519;32;20081;-64
2022/12/07 17:32:31;;;;;;;10.67;6.63;;;;;;;-0.79;100.00;97540.50;18301597;32;20058;-64
2022/12/07 17:42:35;;;;;;;8.87;6.37;;;;;;;-0.92;100.00;97535.12;18300769;32;20114;-65
2022/12/07 18:03:00;;;;;;;11.33;6.60;;;;;;;-1.17;100.00;97519.75;18300116;32;20061;-65
2022/12/07 18:23:25;;;;;;;12.03;7.40;;;;;;;-1.38;100.00;97510.09;18299623;32;20427;-65
2022/12/07 18:33:27;;;;;;;12.63;7.80;;;;;;;-1.46;100.00;97510.25;18298847;32;20062;-65
2022/12/07 18:43:30;;;;;;;11.53;6.77;;;;;;;-1.56;100.00;97513.25;18298513;32;20061;-66
2022/12/07 18:53:33;;;;;;;13.37;7.63;;;;;;;-1.73;100.00;97500.34;18284375;32;20122;-65
2022/12/07 19:03:37;;;;;;;11.70;7.10;;;;;;;-1.81;100.00;97511.09;18297141;32;20097;-66
2022/12/07 19:13:40;;;;;;;9.33;5.37;;;;;;;-1.86;100.00;97494.94;18283047;32;20065;-65
2022/12/07 19:23:43;;;;;;;10.03;6.07;;;;;;;-1.99;100.00;97494.84;18296597;32;20081;-65
2022/12/07 19:33:45;;;;;;;10.53;6.40;;;;;;;-2.06;100.00;97481.56;18295987;32;20086;-65
2022/12/07 19:43:48;;;;;;;12.10;7.03;;;;;;;-2.09;100.00;97480.13;18295492;32;20062;-65
2022/12/07 19:53:52;;;;;;;11.33;6.83;;;;;;;-2.13;100.00;97465.63;18295295;32;20069;-65
2022/12/07 20:03:56;;;;;;;11.20;6.43;;;;;;;-2.19;100.00;97469.06;18294071;32;20480;-66
2022/12/07 20:14:00;;;;;;;13.40;7.10;;;;;;;-2.29;100.00;97463.25;18294175;32;20438;-65
2022/12/07 20:24:05;;;;;;;13.70;7.13;;;;;;;-2.37;100.00;97458.94;18293853;32;20437;-65
2022/12/07 20:34:08;;;;;;;9.60;6.37;;;;;;;-2.36;100.00;97449.16;18293416;32;20101;-65
2022/12/07 20:44:13;;;;;;;11.37;6.23;;;;;;;-2.43;100.00;97439.31;18293503;32;20074;-66
2022/12/07 20:54:16;;;;;;;11.68;6.68;;;;;;;-2.49;100.00;97449.91;18292734;32;20053;-66
2022/12/07 21:04:19;;;;;;;10.67;6.27;;;;;;;-2.46;100.00;97445.00;18279015;32;20046;-66
2022/12/07 21:14:22;;;;;;;9.77;5.70;;;;;;;-2.50;100.00;97441.13;18294128;32;20390;-66
2022/12/07 21:24:25;;;;;;;11.03;6.77;;;;;;;-2.58;100.00;97441.25;18302477;32;20054;-66
2022/12/07 21:34:27;;;;;;;10.47;6.57;;;;;;;-2.66;100.00;97430.81;18301762;32;20092;-66
2022/12/07 21:44:30;;;;;;;10.27;6.47;;;;;;;-2.67;100.00;97432.66;18287477;32;20046;-66
2022/12/07 21:54:33;;;;;;;10.10;6.67;;;;;;;-2.79;100.00;97428.88;18301345;32;20373;-66
2022/12/07 22:04:36;;;;;;;13.70;7.30;;;;;;;-2.86;100.00;97423.53;18300138;32;20109;-66
2022/12/07 22:24:59;;;;;;;12.83;7.83;;;;;;;-2.81;100.00;97426.44;18288244;32;20053;-66
2022/12/07 22:35:04;;;;;;;16.37;8.67;;;;;;;-2.57;100.00;97424.37;18285042;32;20054;-66
2022/12/07 22:45:08;;;;;;;16.80;8.83;;;;;;;-2.32;100.00;97419.44;18285001;32;20074;-66
2022/12/07 22:55:10;;;;;;;18.20;10.67;;;;;;;-2.08;100.00;97418.19;18298030;32;20050;-66
2022/12/07 23:05:13;;;;;;;15.97;9.63;;;;;;;-1.84;100.00;97412.59;18297336;32;20373;-66
2022/12/07 23:15:16;;;;;;;16.67;8.27;;;;;;;-1.63;100.00;97414.28;18297013;32;20076;-66
2022/12/07 23:25:18;;;;;;;14.87;8.73;;;;;;;-1.44;100.00;97410.91;18296673;32;20062;-66
2022/12/07 23:35:21;;;;;;;13.17;8.07;;;;;;;-1.27;100.00;97398.09;18282314;32;20080;-66
2022/12/07 23:45:23;;;;;;;17.33;8.40;;;;;;;-1.16;100.00;97391.38;18281622;32;20147;-66
2022/12/07 23:55:26;;;;;;;16.00;7.97;;;;;;;-1.07;100.00;97382.22;18281544;32;20045;-66
